createdAt,value
2022-09-12T00:00:00.739Z,13.04
2022-09-12T00:03:04.956Z,13.12
2022-09-12T00:06:22.958Z,13.32
2022-09-12T00:09:27.894Z,13.50
2022-09-12T00:12:32.301Z,13.56
2022-09-12T00:15:44.463Z,13.63
2022-09-12T00:18:49.491Z,13.51
2022-09-12T00:21:54.091Z,13.33
2022-09-12T00:24:58.381Z,13.26
2022-09-12T00:28:02.969Z,13.12
2022-09-12T00:31:13.937Z,13.07
2022-09-12T00:34:18.246Z,13.02
2022-09-12T00:37:22.722Z,12.97
2022-09-12T00:40:28.541Z,13.08
2022-09-12T00:43:43.106Z,13.25
2022-09-12T00:46:52.195Z,13.38
2022-09-12T00:50:09.479Z,13.47
2022-09-12T00:53:13.928Z,13.54
2022-09-12T00:56:19.856Z,13.59
2022-09-12T00:59:46.809Z,13.57
2022-09-12T01:03:05.546Z,13.59
2022-09-12T01:06:21.885Z,13.59
2022-09-12T01:09:26.764Z,13.57
2022-09-12T01:12:33.504Z,13.60
2022-09-12T01:15:39.665Z,13.59
2022-09-12T01:19:16.835Z,13.54
2022-09-12T01:22:43.127Z,13.03
2022-09-12T01:25:59.291Z,12.49
2022-09-12T01:29:40.308Z,12.08
2022-09-12T01:32:51.898Z,12.01
2022-09-12T01:36:00.829Z,11.98
2022-09-12T01:39:31.250Z,12.02
2022-09-12T01:43:18.360Z,12.01
2022-09-12T01:46:49.421Z,11.90
2022-09-12T01:50:19.381Z,11.89
2022-09-12T01:53:31.296Z,11.82
2022-09-12T01:56:40.049Z,11.87
2022-09-12T01:59:49.265Z,12.12
2022-09-12T02:03:12.523Z,12.24
2022-09-12T02:06:47.391Z,12.24
2022-09-12T02:10:05.961Z,12.30
2022-09-12T02:13:36.183Z,12.44
2022-09-12T02:16:51.202Z,12.72
2022-09-12T02:20:14.644Z,12.92
2022-09-12T02:23:31.632Z,13.15
2022-09-12T02:26:47.498Z,13.21
2022-09-12T02:29:52.302Z,13.11
2022-09-12T02:33:12.179Z,13.08
2022-09-12T02:37:00.680Z,13.21
2022-09-12T02:40:06.992Z,13.19
2022-09-12T02:43:11.485Z,13.24
2022-09-12T02:46:28.944Z,13.20
2022-09-12T02:49:34.358Z,13.19
2022-09-12T02:52:40.260Z,13.16
2022-09-12T02:55:44.807Z,12.97
2022-09-12T02:58:49.432Z,12.81
2022-09-12T03:02:03.318Z,12.80
2022-09-12T03:05:31.387Z,12.91
2022-09-12T03:08:58.195Z,12.97
2022-09-12T03:12:08.931Z,12.83
2022-09-12T03:15:43.236Z,12.71
2022-09-12T03:19:01.119Z,12.60
2022-09-12T03:22:20.983Z,12.49
2022-09-12T03:25:35.873Z,12.38
2022-09-12T03:28:42.467Z,12.27
2022-09-12T03:31:54.648Z,12.26
2022-09-12T03:34:58.918Z,12.24
2022-09-12T03:38:03.605Z,12.20
2022-09-12T03:41:08.312Z,12.21
2022-09-12T03:44:12.777Z,12.28
2022-09-12T03:47:17.158Z,12.39
2022-09-12T03:50:21.425Z,12.44
2022-09-12T03:53:25.917Z,12.47
2022-09-12T03:56:30.904Z,12.53
2022-09-12T03:59:35.892Z,12.56
2022-09-12T04:02:40.579Z,12.51
2022-09-12T04:05:44.853Z,12.55
2022-09-12T04:08:55.211Z,12.59
2022-09-12T04:11:59.520Z,12.75
2022-09-12T04:15:04.103Z,12.81
2022-09-12T04:18:08.311Z,12.77
2022-09-12T04:21:17.174Z,12.76
2022-09-12T04:24:21.593Z,12.75
2022-09-12T04:27:25.875Z,12.80
2022-09-12T04:30:30.250Z,12.89
2022-09-12T04:33:36.355Z,13.02
2022-09-12T04:36:40.453Z,13.14
2022-09-12T04:39:44.778Z,13.08
2022-09-12T04:42:49.211Z,12.98
2022-09-12T04:45:53.370Z,12.88
2022-09-12T04:48:58.025Z,12.34
2022-09-12T04:52:02.690Z,11.88
2022-09-12T04:55:08.595Z,11.72
2022-09-12T04:58:12.594Z,11.70
2022-09-12T05:01:23.175Z,11.80
2022-09-12T05:04:27.971Z,11.80
2022-09-12T05:07:32.558Z,11.72
2022-09-12T05:10:36.657Z,11.77
2022-09-12T05:13:41.645Z,11.65
2022-09-12T05:16:49.403Z,11.57
2022-09-12T05:19:54.042Z,11.51
2022-09-12T05:22:59.725Z,11.52
2022-09-12T05:26:06.065Z,11.54
2022-09-12T05:29:11.542Z,11.45
2022-09-12T05:32:16.217Z,11.53
2022-09-12T05:35:20.705Z,11.75
2022-09-12T05:38:25.225Z,11.85
2022-09-12T05:41:33.594Z,11.93
2022-09-12T05:44:37.868Z,12.08
2022-09-12T05:47:43.843Z,12.31
2022-09-12T05:50:48.142Z,12.39
2022-09-12T05:53:58.310Z,12.51
2022-09-12T05:57:02.647Z,12.58
2022-09-12T06:00:09.835Z,12.75
2022-09-12T06:03:14.733Z,12.84
2022-09-12T06:06:22.384Z,12.77
2022-09-12T06:09:28.070Z,12.85
2022-09-12T06:12:32.778Z,12.92
2022-09-12T06:15:37.778Z,13.02
2022-09-12T06:18:47.246Z,13.26
2022-09-12T06:21:53.782Z,13.38
2022-09-12T06:24:59.043Z,13.40
2022-09-12T06:28:04.465Z,13.53
2022-09-12T06:31:18.931Z,13.58
2022-09-12T06:34:23.683Z,13.72
2022-09-12T06:37:28.448Z,13.69
2022-09-12T06:40:33.983Z,13.81
2022-09-12T06:43:40.687Z,13.90
2022-09-12T06:46:45.364Z,14.02
2022-09-12T06:49:50.923Z,14.11
2022-09-12T06:52:55.558Z,14.10
2022-09-12T06:56:03.179Z,14.24
2022-09-12T06:59:07.397Z,14.29
2022-09-12T07:02:12.507Z,14.38
2022-09-12T07:05:17.352Z,14.42
2022-09-12T07:08:21.873Z,14.43
2022-09-12T07:11:31.638Z,14.47
2022-09-12T07:14:36.164Z,14.45
2022-09-12T07:17:40.452Z,14.45
2022-09-12T07:20:44.601Z,14.54
2022-09-12T07:23:49.491Z,14.67
2022-09-12T07:26:53.695Z,14.74
2022-09-12T07:29:58.459Z,14.81
2022-09-12T07:33:02.524Z,14.63
2022-09-12T07:36:13.046Z,14.85
2022-09-12T07:39:17.648Z,14.90
2022-09-12T07:42:21.957Z,15.09
2022-09-12T07:45:26.937Z,15.20
2022-09-12T07:48:31.450Z,15.33
2022-09-12T07:51:35.922Z,15.45
2022-09-12T07:54:40.193Z,15.57
2022-09-12T07:57:44.475Z,15.67
2022-09-12T08:00:49.372Z,15.78
2022-09-12T08:03:58.061Z,15.79
2022-09-12T08:07:02.493Z,15.96
2022-09-12T08:10:07.202Z,16.04
2022-09-12T08:13:11.571Z,16.10
2022-09-12T08:16:18.159Z,16.11
2022-09-12T08:19:22.809Z,16.22
2022-09-12T08:22:27.251Z,16.21
2022-09-12T08:25:31.631Z,16.27
2022-09-12T08:28:37.031Z,16.23
2022-09-12T08:31:42.518Z,16.26
2022-09-12T08:34:46.558Z,16.30
2022-09-12T08:37:50.927Z,16.34
2022-09-12T08:41:21.822Z,16.40
2022-09-12T08:45:17.464Z,16.40
2022-09-12T08:48:21.792Z,16.47
2022-09-12T08:51:27.792Z,16.50
2022-09-12T08:54:34.090Z,16.58
2022-09-12T08:57:38.775Z,16.63
2022-09-12T09:00:47.932Z,16.68
2022-09-12T09:04:11.066Z,16.61
2022-09-12T09:07:50.653Z,16.65
2022-09-12T09:11:08.703Z,16.86
2022-09-12T09:14:34.871Z,16.90
2022-09-12T09:17:53.011Z,16.94
2022-09-12T09:21:00.439Z,16.98
2022-09-12T09:24:14.732Z,17.05
2022-09-12T09:27:48.130Z,17.14
2022-09-12T09:30:52.857Z,17.20
2022-09-12T09:33:57.472Z,17.34
2022-09-12T09:37:05.818Z,17.36
2022-09-12T09:40:27.084Z,17.43
2022-09-12T09:43:31.287Z,17.42
2022-09-12T09:46:35.996Z,17.49
2022-09-12T09:49:42.242Z,17.43
2022-09-12T09:52:50.449Z,17.44
2022-09-12T09:55:56.812Z,17.45
2022-09-12T09:59:18.011Z,17.41
2022-09-12T10:02:26.863Z,17.49
2022-09-12T10:05:45.787Z,17.59
2022-09-12T10:08:51.087Z,17.57
2022-09-12T10:11:57.324Z,17.58
2022-09-12T10:15:18.622Z,17.72
2022-09-12T10:18:42.295Z,17.75
2022-09-12T10:21:52.821Z,17.78
2022-09-12T10:25:00.590Z,17.78
2022-09-12T10:28:05.469Z,17.88
2022-09-12T10:31:15.623Z,17.98
2022-09-12T10:34:38.188Z,18.04
2022-09-12T10:38:05.980Z,17.97
2022-09-12T10:41:12.089Z,18.18
2022-09-12T10:44:26.142Z,18.23
2022-09-12T10:47:32.026Z,18.28
2022-09-12T10:50:41.401Z,18.31
2022-09-12T10:53:46.828Z,18.35
2022-09-12T10:57:23.381Z,18.30
2022-09-12T11:00:30.410Z,18.30
2022-09-12T11:04:03.393Z,18.13
2022-09-12T11:07:35.195Z,18.24
2022-09-12T11:11:11.621Z,18.31
2022-09-12T11:14:25.184Z,18.28
2022-09-12T11:17:47.850Z,18.29
2022-09-12T11:21:30.171Z,18.32
2022-09-12T11:25:11.978Z,18.38
2022-09-12T11:28:47.709Z,18.40
2022-09-12T11:32:43.307Z,18.42
2022-09-12T11:35:55.261Z,18.54
2022-09-12T11:39:03.706Z,18.55
2022-09-12T11:42:20.102Z,18.59
2022-09-12T11:45:35.693Z,18.73
2022-09-12T11:49:02.910Z,18.83
2022-09-12T11:52:21.902Z,18.75
2022-09-12T11:55:32.796Z,18.86
2022-09-12T11:58:40.657Z,18.87
2022-09-12T12:01:48.722Z,19.00
2022-09-12T12:05:08.181Z,18.95
2022-09-12T12:08:14.582Z,19.06
2022-09-12T12:11:38.562Z,19.09
2022-09-12T12:14:47.970Z,19.07
2022-09-12T12:18:23.663Z,18.95
2022-09-12T12:21:47.347Z,18.98
2022-09-12T12:25:12.355Z,19.09
2022-09-12T12:28:43.120Z,19.16
2022-09-12T12:31:59.935Z,19.14
2022-09-12T12:36:01.673Z,19.12
2022-09-12T12:39:33.800Z,19.12
2022-09-12T12:42:37.926Z,19.16
2022-09-12T12:45:48.809Z,19.17
2022-09-12T12:49:19.135Z,19.13
2022-09-12T12:52:24.979Z,19.18
2022-09-12T12:55:41.868Z,19.35
2022-09-12T12:58:46.392Z,19.41
2022-09-12T13:01:56.182Z,19.50
2022-09-12T13:05:06.491Z,19.51
2022-09-12T13:08:17.152Z,19.52
2022-09-12T13:11:37.152Z,19.48
2022-09-12T13:14:47.153Z,19.46
2022-09-12T13:17:52.033Z,19.55
2022-09-12T13:21:18.441Z,19.58
2022-09-12T13:24:23.755Z,19.63
2022-09-12T13:27:27.693Z,19.64
2022-09-12T13:30:42.552Z,19.50
2022-09-12T13:33:55.110Z,19.49
2022-09-12T13:37:28.724Z,19.56
2022-09-12T13:41:15.677Z,19.46
2022-09-12T13:44:21.728Z,19.54
2022-09-12T13:47:31.547Z,19.60
2022-09-12T13:50:55.119Z,19.64
2022-09-12T13:54:05.431Z,19.56
2022-09-12T13:57:33.811Z,19.58
2022-09-12T14:00:38.510Z,19.74
2022-09-12T14:04:13.157Z,19.76
2022-09-12T14:07:23.640Z,19.65
2022-09-12T14:10:35.957Z,19.65
2022-09-12T14:13:40.714Z,19.62
2022-09-12T14:16:45.328Z,19.65
2022-09-12T14:19:50.024Z,19.61
2022-09-12T14:22:54.678Z,19.64
2022-09-12T14:26:04.155Z,19.64
2022-09-12T14:29:09.104Z,19.61
2022-09-12T14:32:24.461Z,19.62
2022-09-12T14:35:30.027Z,19.61
2022-09-12T14:38:44.144Z,19.58
2022-09-12T14:41:51.159Z,19.56
2022-09-12T14:45:15.322Z,19.62
2022-09-12T14:48:20.219Z,19.62
2022-09-12T14:51:32.281Z,19.64
2022-09-12T14:54:37.814Z,19.56
2022-09-12T14:57:44.472Z,19.54
2022-09-12T15:01:03.867Z,19.52
2022-09-12T15:04:08.450Z,19.57
2022-09-12T15:07:56.390Z,19.39
2022-09-12T15:11:01.214Z,19.47
2022-09-12T15:14:15.527Z,19.55
2022-09-12T15:17:19.707Z,19.53
2022-09-12T15:20:24.941Z,19.57
2022-09-12T15:23:58.669Z,19.62
2022-09-12T15:27:09.132Z,19.56
2022-09-12T15:30:14.211Z,19.51
2022-09-12T15:33:22.847Z,19.45
2022-09-12T15:36:28.902Z,19.33
2022-09-12T15:39:33.625Z,19.42
2022-09-12T15:42:38.083Z,19.40
2022-09-12T15:45:43.680Z,19.40
2022-09-12T15:48:48.195Z,19.37
2022-09-12T15:51:52.976Z,19.33
2022-09-12T15:54:57.325Z,19.33
2022-09-12T15:58:06.854Z,19.27
2022-09-12T16:01:17.608Z,19.18
2022-09-12T16:04:25.671Z,19.18
2022-09-12T16:07:30.069Z,19.12
2022-09-12T16:10:35.679Z,19.09
2022-09-12T16:13:39.965Z,18.99
2022-09-12T16:16:51.068Z,18.96
2022-09-12T16:19:55.670Z,18.82
2022-09-12T16:22:59.688Z,18.82
2022-09-12T16:26:06.313Z,18.87
2022-09-12T16:29:14.371Z,18.86
2022-09-12T16:32:18.864Z,18.84
2022-09-12T16:35:23.255Z,18.80
2022-09-12T16:38:28.006Z,18.74
2022-09-12T16:41:32.412Z,18.77
2022-09-12T16:44:36.804Z,18.80
2022-09-12T16:47:41.101Z,18.72
2022-09-12T16:50:55.451Z,18.71
2022-09-12T16:54:00.434Z,18.62
2022-09-12T16:57:06.452Z,18.60
2022-09-12T17:00:11.540Z,18.57
2022-09-12T17:03:16.988Z,18.52
2022-09-12T17:06:21.987Z,18.55
2022-09-12T17:09:28.170Z,18.50
2022-09-12T17:12:32.909Z,18.52
2022-09-12T17:15:38.608Z,18.51
2022-09-12T17:18:43.225Z,18.46
2022-09-12T17:21:49.951Z,18.43
2022-09-12T17:24:54.440Z,18.39
2022-09-12T17:27:58.758Z,18.33
2022-09-12T17:31:07.194Z,18.33
2022-09-12T17:34:16.375Z,18.34
2022-09-12T17:37:21.810Z,18.34
2022-09-12T17:40:48.755Z,18.28
2022-09-12T17:43:55.621Z,18.23
2022-09-12T17:47:00.439Z,18.27
2022-09-12T17:50:30.451Z,18.29
2022-09-12T17:53:30.091Z,18.29
2022-09-12T17:56:37.046Z,18.17
2022-09-12T17:59:41.571Z,18.14
2022-09-12T18:02:46.751Z,18.11
2022-09-12T18:05:56.430Z,18.14
2022-09-12T18:09:08.027Z,18.20
2022-09-12T18:12:12.472Z,18.13
2022-09-12T18:15:16.780Z,18.18
2022-09-12T18:18:22.690Z,18.14
2022-09-12T18:21:28.902Z,18.13
2022-09-12T18:24:34.072Z,18.18
2022-09-12T18:27:38.497Z,18.14
2022-09-12T18:30:43.168Z,18.15
2022-09-12T18:33:48.312Z,18.13
2022-09-12T18:36:54.887Z,18.11
2022-09-12T18:39:59.033Z,18.03
2022-09-12T18:43:03.683Z,18.07
2022-09-12T18:46:15.509Z,18.07
2022-09-12T18:49:20.207Z,17.99
2022-09-12T18:52:24.730Z,18.14
2022-09-12T18:55:31.857Z,18.14
2022-09-12T18:58:38.862Z,18.03
2022-09-12T19:01:43.705Z,18.13
2022-09-12T19:04:48.435Z,18.06
2022-09-12T19:07:54.237Z,18.03
2022-09-12T19:10:58.666Z,17.99
2022-09-12T19:14:03.456Z,17.88
2022-09-12T19:17:09.435Z,17.80
2022-09-12T19:20:14.372Z,17.69
2022-09-12T19:23:19.239Z,17.62
2022-09-12T19:26:23.803Z,17.65
2022-09-12T19:29:28.020Z,17.52
2022-09-12T19:32:32.231Z,17.54
2022-09-12T19:35:37.158Z,17.50
2022-09-12T19:38:41.637Z,17.46
2022-09-12T19:41:46.267Z,17.61
2022-09-12T19:44:55.621Z,17.67
2022-09-12T19:48:00.989Z,17.61
2022-09-12T19:51:06.014Z,17.57
2022-09-12T19:54:10.389Z,17.53
2022-09-12T19:57:14.870Z,17.51
2022-09-12T20:00:19.598Z,17.50
2022-09-12T20:03:24.283Z,17.47
2022-09-12T20:06:28.846Z,17.54
2022-09-12T20:09:33.592Z,17.62
2022-09-12T20:12:37.699Z,17.66
2022-09-12T20:15:45.430Z,17.64
2022-09-12T20:19:01.805Z,17.68
2022-09-12T20:22:06.668Z,17.68
2022-09-12T20:25:11.047Z,17.68
2022-09-12T20:28:15.570Z,17.71
2022-09-12T20:31:20.258Z,17.77
2022-09-12T20:34:24.685Z,17.73
2022-09-12T20:37:30.237Z,17.75
2022-09-12T20:40:34.468Z,17.80
2022-09-12T20:43:39.752Z,17.83
2022-09-12T20:46:44.233Z,17.79
2022-09-12T20:49:48.503Z,17.85
2022-09-12T20:52:53.018Z,17.87
2022-09-12T20:56:00.097Z,17.90
2022-09-12T20:59:05.489Z,17.89
2022-09-12T21:02:15.377Z,17.89
2022-09-12T21:05:19.733Z,17.87
2022-09-12T21:08:24.146Z,17.89
2022-09-12T21:11:29.239Z,17.86
2022-09-12T21:14:33.874Z,17.84
2022-09-12T21:17:38.163Z,17.84
2022-09-12T21:20:42.508Z,17.89
2022-09-12T21:23:47.101Z,17.86
2022-09-12T21:26:51.187Z,17.89
2022-09-12T21:29:55.989Z,17.87
2022-09-12T21:33:00.421Z,17.89
2022-09-12T21:36:06.621Z,17.88
2022-09-12T21:39:11.272Z,17.86
2022-09-12T21:42:15.510Z,17.83
2022-09-12T21:45:20.113Z,17.81
2022-09-12T21:48:24.676Z,17.84
2022-09-12T21:51:28.998Z,17.83
2022-09-12T21:54:35.173Z,17.83
2022-09-12T21:57:39.441Z,17.82
2022-09-12T22:00:44.608Z,17.81
2022-09-12T22:03:49.566Z,17.80
2022-09-12T22:06:53.848Z,17.77
2022-09-12T22:09:58.255Z,17.81
2022-09-12T22:13:03.137Z,17.79
2022-09-12T22:16:07.863Z,17.78
2022-09-12T22:19:12.954Z,17.75
2022-09-12T22:22:35.676Z,17.76
2022-09-12T22:25:40.617Z,17.77
2022-09-12T22:28:47.491Z,17.75
2022-09-12T22:31:53.629Z,17.74
2022-09-12T22:34:58.951Z,17.71
2022-09-12T22:38:03.417Z,17.69
2022-09-12T22:41:11.663Z,17.68
2022-09-12T22:44:17.780Z,17.62
2022-09-12T22:47:22.198Z,17.52
2022-09-12T22:50:26.451Z,17.37
2022-09-12T22:53:30.840Z,17.19
2022-09-12T22:56:35.455Z,17.03
2022-09-12T22:59:39.953Z,16.87
2022-09-12T23:02:44.244Z,16.76
2022-09-12T23:05:49.035Z,16.70
2022-09-12T23:08:53.788Z,16.64
2022-09-12T23:11:58.907Z,16.62
2022-09-12T23:15:04.000Z,16.57
2022-09-12T23:18:08.499Z,16.54
2022-09-12T23:21:15.789Z,16.57
2022-09-12T23:24:20.166Z,16.60
2022-09-12T23:27:28.223Z,16.66
2022-09-12T23:30:32.732Z,16.64
2022-09-12T23:33:36.842Z,16.61
2022-09-12T23:36:41.380Z,16.58
2022-09-12T23:39:46.069Z,16.62
2022-09-12T23:42:50.255Z,16.59
2022-09-12T23:45:54.547Z,16.53
2022-09-12T23:48:59.133Z,16.40
2022-09-12T23:52:03.875Z,16.28
2022-09-12T23:55:09.100Z,16.15
2022-09-12T23:58:14.065Z,16.06
